sensor_id;sensor_type;location;lat;lon;timestamp;temperature;humidity
14709;DHT22;7445;50.774;4.944;2023-08-21T00:02:01;20.30;99.90
14709;DHT22;7445;50.774;4.944;2023-08-21T00:04:27;20.30;99.90
14709;DHT22;7445;50.774;4.944;2023-08-21T00:06:53;20.30;99.90
14709;DHT22;7445;50.774;4.944;2023-08-21T00:09:19;20.30;99.90
14709;DHT22;7445;50.774;4.944;2023-08-21T00:11:44;20.30;99.90
14709;DHT22;7445;50.774;4.944;2023-08-21T00:14:10;20.30;99.90
14709;DHT22;7445;50.774;4.944;2023-08-21T00:16:36;20.20;99.90
14709;DHT22;7445;50.774;4.944;2023-08-21T00:19:03;20.20;99.90
14709;DHT22;7445;50.774;4.944;2023-08-21T00:21:29;20.20;99.90
14709;DHT22;7445;50.774;4.944;2023-08-21T00:23:55;20.10;99.90
14709;DHT22;7445;50.774;4.944;2023-08-21T00:26:20;20.00;99.90
14709;DHT22;7445;50.774;4.944;2023-08-21T00:28:46;20.00;99.90
14709;DHT22;7445;50.774;4.944;2023-08-21T00:31:12;20.00;99.90
14709;DHT22;7445;50.774;4.944;2023-08-21T00:33:37;20.00;1.00
14709;DHT22;7445;50.774;4.944;2023-08-21T00:36:03;20.00;99.90
14709;DHT22;7445;50.774;4.944;2023-08-21T00:38:29;19.90;1.00
14709;DHT22;7445;50.774;4.944;2023-08-21T00:40:55;20.00;1.00
14709;DHT22;7445;50.774;4.944;2023-08-21T00:43:21;19.90;1.00
14709;DHT22;7445;50.774;4.944;2023-08-21T00:45:48;19.80;1.00
14709;DHT22;7445;50.774;4.944;2023-08-21T00:48:15;19.80;1.00
14709;DHT22;7445;50.774;4.944;2023-08-21T00:50:41;19.80;1.00
14709;DHT22;7445;50.774;4.944;2023-08-21T00:53:07;19.80;1.00
14709;DHT22;7445;50.774;4.944;2023-08-21T00:55:33;19.80;1.00
14709;DHT22;7445;50.774;4.944;2023-08-21T00:58:00;19.80;1.00
14709;DHT22;7445;50.774;4.944;2023-08-21T01:00:28;19.80;1.00
14709;DHT22;7445;50.774;4.944;2023-08-21T01:02:55;19.80;1.00
14709;DHT22;7445;50.774;4.944;2023-08-21T01:05:22;19.80;1.00
14709;DHT22;7445;50.774;4.944;2023-08-21T01:08:16;19.80;1.00
14709;DHT22;7445;50.774;4.944;2023-08-21T01:10:56;19.80;34.40
14709;DHT22;7445;50.774;4.944;2023-08-21T01:13:47;19.70;1.00
14709;DHT22;7445;50.774;4.944;2023-08-21T01:16:16;19.80;1.00
14709;DHT22;7445;50.774;4.944;2023-08-21T01:18:43;19.70;1.00
14709;DHT22;7445;50.774;4.944;2023-08-21T01:21:11;19.70;54.20
14709;DHT22;7445;50.774;4.944;2023-08-21T01:23:37;19.60;99.90
14709;DHT22;7445;50.774;4.944;2023-08-21T01:26:04;19.60;99.90
14709;DHT22;7445;50.774;4.944;2023-08-21T01:28:31;19.50;99.90
14709;DHT22;7445;50.774;4.944;2023-08-21T01:31:14;19.60;99.90
14709;DHT22;7445;50.774;4.944;2023-08-21T01:33:45;19.50;99.90
14709;DHT22;7445;50.774;4.944;2023-08-21T01:36:13;19.40;99.90
14709;DHT22;7445;50.774;4.944;2023-08-21T01:38:39;19.40;99.90
14709;DHT22;7445;50.774;4.944;2023-08-21T01:41:05;19.30;99.90
14709;DHT22;7445;50.774;4.944;2023-08-21T01:43:31;19.30;99.90
14709;DHT22;7445;50.774;4.944;2023-08-21T01:45:57;19.30;99.90
14709;DHT22;7445;50.774;4.944;2023-08-21T01:48:23;19.30;99.90
14709;DHT22;7445;50.774;4.944;2023-08-21T01:50:49;19.20;1.00
14709;DHT22;7445;50.774;4.944;2023-08-21T01:53:14;19.10;1.00
14709;DHT22;7445;50.774;4.944;2023-08-21T01:55:40;19.10;1.00
14709;DHT22;7445;50.774;4.944;2023-08-21T01:58:06;19.10;1.00
14709;DHT22;7445;50.774;4.944;2023-08-21T02:00:31;19.10;1.00
14709;DHT22;7445;50.774;4.944;2023-08-21T02:02:57;19.10;1.00
14709;DHT22;7445;50.774;4.944;2023-08-21T02:05:23;19.10;1.00
14709;DHT22;7445;50.774;4.944;2023-08-21T02:07:48;19.10;1.00
14709;DHT22;7445;50.774;4.944;2023-08-21T02:10:14;19.10;1.00
14709;DHT22;7445;50.774;4.944;2023-08-21T02:12:40;19.00;1.00
14709;DHT22;7445;50.774;4.944;2023-08-21T02:15:06;19.00;1.00
14709;DHT22;7445;50.774;4.944;2023-08-21T02:17:31;19.00;1.00
14709;DHT22;7445;50.774;4.944;2023-08-21T02:19:57;19.00;1.00
14709;DHT22;7445;50.774;4.944;2023-08-21T02:22:23;18.90;1.00
14709;DHT22;7445;50.774;4.944;2023-08-21T02:24:49;18.90;1.00
14709;DHT22;7445;50.774;4.944;2023-08-21T02:27:14;18.90;1.00
14709;DHT22;7445;50.774;4.944;2023-08-21T02:29:40;18.80;1.00
14709;DHT22;7445;50.774;4.944;2023-08-21T02:32:06;18.80;1.00
14709;DHT22;7445;50.774;4.944;2023-08-21T02:34:31;18.70;1.00
14709;DHT22;7445;50.774;4.944;2023-08-21T02:36:57;18.70;1.00
14709;DHT22;7445;50.774;4.944;2023-08-21T02:39:23;18.60;1.00
14709;DHT22;7445;50.774;4.944;2023-08-21T02:41:49;18.60;56.30
14709;DHT22;7445;50.774;4.944;2023-08-21T02:44:15;18.60;1.00
14709;DHT22;7445;50.774;4.944;2023-08-21T02:46:41;18.60;50.20
14709;DHT22;7445;50.774;4.944;2023-08-21T02:49:06;18.60;1.00
14709;DHT22;7445;50.774;4.944;2023-08-21T02:51:32;18.60;1.00
14709;DHT22;7445;50.774;4.944;2023-08-21T02:53:58;18.60;1.00
14709;DHT22;7445;50.774;4.944;2023-08-21T02:56:23;18.60;1.00
14709;DHT22;7445;50.774;4.944;2023-08-21T02:58:49;18.60;1.00
14709;DHT22;7445;50.774;4.944;2023-08-21T03:01:14;18.60;12.10
14709;DHT22;7445;50.774;4.944;2023-08-21T03:03:40;18.70;4.00
14709;DHT22;7445;50.774;4.944;2023-08-21T03:06:06;18.70;1.00
14709;DHT22;7445;50.774;4.944;2023-08-21T03:08:31;18.60;99.90
14709;DHT22;7445;50.774;4.944;2023-08-21T03:10:57;18.60;25.90
14709;DHT22;7445;50.774;4.944;2023-08-21T03:13:24;18.60;1.00
14709;DHT22;7445;50.774;4.944;2023-08-21T03:15:49;18.50;99.90
14709;DHT22;7445;50.774;4.944;2023-08-21T03:18:15;18.50;99.90
14709;DHT22;7445;50.774;4.944;2023-08-21T03:20:47;18.50;99.90
14709;DHT22;7445;50.774;4.944;2023-08-21T03:23:14;18.40;99.90
14709;DHT22;7445;50.774;4.944;2023-08-21T03:25:39;18.40;99.90
14709;DHT22;7445;50.774;4.944;2023-08-21T03:28:05;18.40;99.90
14709;DHT22;7445;50.774;4.944;2023-08-21T03:30:31;18.40;1.00
14709;DHT22;7445;50.774;4.944;2023-08-21T03:32:56;18.40;1.00
14709;DHT22;7445;50.774;4.944;2023-08-21T03:35:22;18.30;1.00
14709;DHT22;7445;50.774;4.944;2023-08-21T03:37:48;18.30;99.90
14709;DHT22;7445;50.774;4.944;2023-08-21T03:40:13;18.30;1.00
14709;DHT22;7445;50.774;4.944;2023-08-21T03:42:40;18.30;1.00
14709;DHT22;7445;50.774;4.944;2023-08-21T03:45:07;18.30;1.00
14709;DHT22;7445;50.774;4.944;2023-08-21T03:47:33;18.30;99.90
14709;DHT22;7445;50.774;4.944;2023-08-21T03:49:58;18.30;1.00
14709;DHT22;7445;50.774;4.944;2023-08-21T03:52:24;18.20;1.00
14709;DHT22;7445;50.774;4.944;2023-08-21T03:54:50;18.20;1.00
14709;DHT22;7445;50.774;4.944;2023-08-21T03:57:15;18.20;1.00
14709;DHT22;7445;50.774;4.944;2023-08-21T03:59:41;18.20;1.00
14709;DHT22;7445;50.774;4.944;2023-08-21T04:02:09;18.20;1.00
14709;DHT22;7445;50.774;4.944;2023-08-21T04:04:35;18.10;99.90
14709;DHT22;7445;50.774;4.944;2023-08-21T04:07:01;18.10;99.90
14709;DHT22;7445;50.774;4.944;2023-08-21T04:09:26;18.00;99.90
14709;DHT22;7445;50.774;4.944;2023-08-21T04:11:52;18.00;99.90
14709;DHT22;7445;50.774;4.944;2023-08-21T04:14:18;18.00;1.00
14709;DHT22;7445;50.774;4.944;2023-08-21T04:16:43;18.00;1.00
14709;DHT22;7445;50.774;4.944;2023-08-21T04:19:09;18.00;1.00
14709;DHT22;7445;50.774;4.944;2023-08-21T04:21:34;18.10;1.00
14709;DHT22;7445;50.774;4.944;2023-08-21T04:24:00;18.10;99.90
14709;DHT22;7445;50.774;4.944;2023-08-21T04:26:26;18.10;99.90
14709;DHT22;7445;50.774;4.944;2023-08-21T04:28:52;18.10;99.90
14709;DHT22;7445;50.774;4.944;2023-08-21T04:31:19;18.10;99.90
14709;DHT22;7445;50.774;4.944;2023-08-21T04:33:45;18.00;99.90
14709;DHT22;7445;50.774;4.944;2023-08-21T04:36:17;18.00;99.90
14709;DHT22;7445;50.774;4.944;2023-08-21T04:38:43;18.00;99.90
14709;DHT22;7445;50.774;4.944;2023-08-21T04:41:10;18.00;99.90
14709;DHT22;7445;50.774;4.944;2023-08-21T04:43:36;17.90;99.90
14709;DHT22;7445;50.774;4.944;2023-08-21T04:46:02;17.90;99.90
14709;DHT22;7445;50.774;4.944;2023-08-21T04:48:29;17.90;99.90
14709;DHT22;7445;50.774;4.944;2023-08-21T04:50:55;17.90;99.90
14709;DHT22;7445;50.774;4.944;2023-08-21T04:53:20;17.80;99.90
14709;DHT22;7445;50.774;4.944;2023-08-21T04:55:46;17.70;99.90
14709;DHT22;7445;50.774;4.944;2023-08-21T04:58:12;17.70;99.90
14709;DHT22;7445;50.774;4.944;2023-08-21T05:00:37;17.70;1.00
14709;DHT22;7445;50.774;4.944;2023-08-21T05:03:03;17.80;99.90
14709;DHT22;7445;50.774;4.944;2023-08-21T05:05:29;17.80;1.00
14709;DHT22;7445;50.774;4.944;2023-08-21T05:07:55;17.80;1.00
14709;DHT22;7445;50.774;4.944;2023-08-21T05:10:20;17.80;1.00
14709;DHT22;7445;50.774;4.944;2023-08-21T05:12:46;17.90;1.00
14709;DHT22;7445;50.774;4.944;2023-08-21T05:15:12;18.00;99.90
14709;DHT22;7445;50.774;4.944;2023-08-21T05:17:38;18.00;99.90
14709;DHT22;7445;50.774;4.944;2023-08-21T05:20:04;18.10;99.90
14709;DHT22;7445;50.774;4.944;2023-08-21T05:22:30;18.10;99.90
14709;DHT22;7445;50.774;4.944;2023-08-21T05:24:56;18.20;99.90
14709;DHT22;7445;50.774;4.944;2023-08-21T05:27:22;18.30;99.90
14709;DHT22;7445;50.774;4.944;2023-08-21T05:29:48;18.30;99.90
14709;DHT22;7445;50.774;4.944;2023-08-21T05:32:16;18.30;99.90
14709;DHT22;7445;50.774;4.944;2023-08-21T05:34:41;18.30;99.90
14709;DHT22;7445;50.774;4.944;2023-08-21T05:37:07;18.30;99.90
14709;DHT22;7445;50.774;4.944;2023-08-21T05:39:33;18.30;99.90
14709;DHT22;7445;50.774;4.944;2023-08-21T05:41:59;18.40;95.30
14709;DHT22;7445;50.774;4.944;2023-08-21T05:44:25;18.40;99.90
14709;DHT22;7445;50.774;4.944;2023-08-21T05:46:50;18.50;76.30
14709;DHT22;7445;50.774;4.944;2023-08-21T05:49:16;18.50;99.90
14709;DHT22;7445;50.774;4.944;2023-08-21T05:51:42;18.60;34.70
14709;DHT22;7445;50.774;4.944;2023-08-21T05:54:07;18.60;35.90
14709;DHT22;7445;50.774;4.944;2023-08-21T05:56:33;18.70;49.00
14709;DHT22;7445;50.774;4.944;2023-08-21T05:58:59;18.70;1.00
14709;DHT22;7445;50.774;4.944;2023-08-21T06:01:26;18.80;1.00
14709;DHT22;7445;50.774;4.944;2023-08-21T06:04:02;18.80;1.00
14709;DHT22;7445;50.774;4.944;2023-08-21T06:06:28;18.90;1.00
14709;DHT22;7445;50.774;4.944;2023-08-21T06:08:53;18.90;1.00
14709;DHT22;7445;50.774;4.944;2023-08-21T06:11:19;19.00;1.00
14709;DHT22;7445;50.774;4.944;2023-08-21T06:13:44;19.00;1.00
14709;DHT22;7445;50.774;4.944;2023-08-21T06:16:10;19.10;1.00
14709;DHT22;7445;50.774;4.944;2023-08-21T06:18:37;19.20;1.00
14709;DHT22;7445;50.774;4.944;2023-08-21T06:21:02;19.30;1.00
14709;DHT22;7445;50.774;4.944;2023-08-21T06:23:28;19.40;1.00
14709;DHT22;7445;50.774;4.944;2023-08-21T06:25:54;19.40;1.00
14709;DHT22;7445;50.774;4.944;2023-08-21T06:28:19;19.50;1.00
14709;DHT22;7445;50.774;4.944;2023-08-21T06:30:45;19.50;1.00
14709;DHT22;7445;50.774;4.944;2023-08-21T06:33:11;19.70;1.00
14709;DHT22;7445;50.774;4.944;2023-08-21T06:35:38;19.80;1.00
14709;DHT22;7445;50.774;4.944;2023-08-21T06:38:05;19.80;99.90
14709;DHT22;7445;50.774;4.944;2023-08-21T06:40:31;19.80;99.90
14709;DHT22;7445;50.774;4.944;2023-08-21T06:42:56;19.90;99.90
14709;DHT22;7445;50.774;4.944;2023-08-21T06:45:22;20.00;99.90
14709;DHT22;7445;50.774;4.944;2023-08-21T06:47:48;20.10;99.90
14709;DHT22;7445;50.774;4.944;2023-08-21T06:50:16;20.20;99.90
14709;DHT22;7445;50.774;4.944;2023-08-21T06:52:41;20.20;99.90
14709;DHT22;7445;50.774;4.944;2023-08-21T06:55:07;20.40;1.00
14709;DHT22;7445;50.774;4.944;2023-08-21T06:57:33;20.40;56.30
14709;DHT22;7445;50.774;4.944;2023-08-21T06:59:59;20.50;1.00
14709;DHT22;7445;50.774;4.944;2023-08-21T07:02:24;20.50;1.00
14709;DHT22;7445;50.774;4.944;2023-08-21T07:04:50;20.50;1.00
14709;DHT22;7445;50.774;4.944;2023-08-21T07:07:15;20.60;1.00
14709;DHT22;7445;50.774;4.944;2023-08-21T07:09:42;20.60;1.00
14709;DHT22;7445;50.774;4.944;2023-08-21T07:12:08;20.70;99.90
14709;DHT22;7445;50.774;4.944;2023-08-21T07:14:34;20.80;99.90
14709;DHT22;7445;50.774;4.944;2023-08-21T07:16:59;20.90;99.90
14709;DHT22;7445;50.774;4.944;2023-08-21T07:19:25;20.90;99.90
14709;DHT22;7445;50.774;4.944;2023-08-21T07:21:51;21.00;99.90
14709;DHT22;7445;50.774;4.944;2023-08-21T07:24:16;21.10;99.90
14709;DHT22;7445;50.774;4.944;2023-08-21T07:26:42;21.30;99.90
14709;DHT22;7445;50.774;4.944;2023-08-21T07:29:08;21.50;99.90
14709;DHT22;7445;50.774;4.944;2023-08-21T07:31:34;21.50;1.00
14709;DHT22;7445;50.774;4.944;2023-08-21T07:33:59;21.60;1.00
14709;DHT22;7445;50.774;4.944;2023-08-21T07:36:25;21.80;1.00
14709;DHT22;7445;50.774;4.944;2023-08-21T07:38:51;22.00;83.00
14709;DHT22;7445;50.774;4.944;2023-08-21T07:41:16;22.20;1.00
14709;DHT22;7445;50.774;4.944;2023-08-21T07:43:43;22.30;1.00
14709;DHT22;7445;50.774;4.944;2023-08-21T07:46:11;22.30;99.90
14709;DHT22;7445;50.774;4.944;2023-08-21T07:48:44;22.30;1.00
14709;DHT22;7445;50.774;4.944;2023-08-21T07:51:10;22.40;1.00
14709;DHT22;7445;50.774;4.944;2023-08-21T07:53:36;22.50;1.00
14709;DHT22;7445;50.774;4.944;2023-08-21T07:56:03;22.30;1.00
14709;DHT22;7445;50.774;4.944;2023-08-21T07:58:32;22.50;22.70
14709;DHT22;7445;50.774;4.944;2023-08-21T08:01:01;22.60;99.90
14709;DHT22;7445;50.774;4.944;2023-08-21T08:03:27;22.60;1.00
14709;DHT22;7445;50.774;4.944;2023-08-21T08:05:52;22.80;1.00
14709;DHT22;7445;50.774;4.944;2023-08-21T08:08:18;23.00;1.00
14709;DHT22;7445;50.774;4.944;2023-08-21T08:10:44;23.10;99.90
14709;DHT22;7445;50.774;4.944;2023-08-21T08:13:10;23.20;1.00
14709;DHT22;7445;50.774;4.944;2023-08-21T08:15:35;23.20;1.00
14709;DHT22;7445;50.774;4.944;2023-08-21T08:18:02;23.30;1.00
14709;DHT22;7445;50.774;4.944;2023-08-21T08:20:29;23.40;1.00
14709;DHT22;7445;50.774;4.944;2023-08-21T08:22:54;23.50;1.00
14709;DHT22;7445;50.774;4.944;2023-08-21T08:25:20;23.50;99.90
14709;DHT22;7445;50.774;4.944;2023-08-21T08:27:46;23.60;99.90
14709;DHT22;7445;50.774;4.944;2023-08-21T08:30:12;23.80;99.90
14709;DHT22;7445;50.774;4.944;2023-08-21T08:32:39;23.80;1.00
14709;DHT22;7445;50.774;4.944;2023-08-21T08:35:07;24.00;99.90
14709;DHT22;7445;50.774;4.944;2023-08-21T08:37:33;24.00;99.90
14709;DHT22;7445;50.774;4.944;2023-08-21T08:39:59;23.80;1.00
14709;DHT22;7445;50.774;4.944;2023-08-21T08:42:24;24.00;1.00
14709;DHT22;7445;50.774;4.944;2023-08-21T08:44:50;24.10;1.00
14709;DHT22;7445;50.774;4.944;2023-08-21T08:47:19;24.20;1.00
14709;DHT22;7445;50.774;4.944;2023-08-21T08:49:47;24.40;99.90
14709;DHT22;7445;50.774;4.944;2023-08-21T08:52:14;24.30;99.90
14709;DHT22;7445;50.774;4.944;2023-08-21T08:54:43;24.30;99.90
14709;DHT22;7445;50.774;4.944;2023-08-21T08:57:09;24.40;99.90
14709;DHT22;7445;50.774;4.944;2023-08-21T08:59:34;24.40;99.90
14709;DHT22;7445;50.774;4.944;2023-08-21T09:02:00;24.50;99.90
14709;DHT22;7445;50.774;4.944;2023-08-21T09:04:26;24.40;99.90
14709;DHT22;7445;50.774;4.944;2023-08-21T09:06:52;24.50;99.90
14709;DHT22;7445;50.774;4.944;2023-08-21T09:09:17;24.70;99.90
14709;DHT22;7445;50.774;4.944;2023-08-21T09:11:44;24.80;99.90
14709;DHT22;7445;50.774;4.944;2023-08-21T09:14:11;25.00;99.90
14709;DHT22;7445;50.774;4.944;2023-08-21T09:16:37;25.10;96.90
14709;DHT22;7445;50.774;4.944;2023-08-21T09:19:02;25.10;99.90
14709;DHT22;7445;50.774;4.944;2023-08-21T09:21:28;25.40;99.90
14709;DHT22;7445;50.774;4.944;2023-08-21T09:24:01;25.40;5.90
14709;DHT22;7445;50.774;4.944;2023-08-21T09:26:31;25.60;99.90
14709;DHT22;7445;50.774;4.944;2023-08-21T09:29:04;25.60;1.00
14709;DHT22;7445;50.774;4.944;2023-08-21T09:31:31;25.80;1.00
14709;DHT22;7445;50.774;4.944;2023-08-21T09:33:59;25.90;99.90
14709;DHT22;7445;50.774;4.944;2023-08-21T09:36:27;26.00;10.30
14709;DHT22;7445;50.774;4.944;2023-08-21T09:38:54;25.90;1.00
14709;DHT22;7445;50.774;4.944;2023-08-21T09:41:21;26.10;1.00
14709;DHT22;7445;50.774;4.944;2023-08-21T09:43:47;26.20;1.00
14709;DHT22;7445;50.774;4.944;2023-08-21T09:46:17;26.20;1.00
14709;DHT22;7445;50.774;4.944;2023-08-21T09:48:47;26.30;1.00
14709;DHT22;7445;50.774;4.944;2023-08-21T09:51:13;26.20;1.00
14709;DHT22;7445;50.774;4.944;2023-08-21T09:53:39;26.20;1.00
14709;DHT22;7445;50.774;4.944;2023-08-21T09:56:06;26.10;1.00
14709;DHT22;7445;50.774;4.944;2023-08-21T09:58:32;26.10;1.00
14709;DHT22;7445;50.774;4.944;2023-08-21T10:00:59;26.10;1.00
14709;DHT22;7445;50.774;4.944;2023-08-21T10:03:25;26.20;1.00
14709;DHT22;7445;50.774;4.944;2023-08-21T10:05:55;26.10;1.00
14709;DHT22;7445;50.774;4.944;2023-08-21T10:08:25;26.10;1.00
14709;DHT22;7445;50.774;4.944;2023-08-21T10:10:51;25.90;1.00
14709;DHT22;7445;50.774;4.944;2023-08-21T10:13:18;26.00;1.00
14709;DHT22;7445;50.774;4.944;2023-08-21T10:15:44;26.40;1.00
14709;DHT22;7445;50.774;4.944;2023-08-21T10:18:24;26.50;1.00
14709;DHT22;7445;50.774;4.944;2023-08-21T10:20:50;26.50;1.00
14709;DHT22;7445;50.774;4.944;2023-08-21T10:23:27;26.20;1.00
14709;DHT22;7445;50.774;4.944;2023-08-21T10:26:01;26.40;1.00
14709;DHT22;7445;50.774;4.944;2023-08-21T10:29:02;26.60;1.00
14709;DHT22;7445;50.774;4.944;2023-08-21T10:31:40;27.00;1.00
14709;DHT22;7445;50.774;4.944;2023-08-21T10:34:12;27.00;1.00
14709;DHT22;7445;50.774;4.944;2023-08-21T10:39:25;26.90;1.00
14709;DHT22;7445;50.774;4.944;2023-08-21T10:44:52;26.90;1.00
14709;DHT22;7445;50.774;4.944;2023-08-21T10:50:03;27.00;1.00
14709;DHT22;7445;50.774;4.944;2023-08-21T10:52:29;27.10;1.00
14709;DHT22;7445;50.774;4.944;2023-08-21T10:54:58;26.80;1.00
14709;DHT22;7445;50.774;4.944;2023-08-21T10:57:25;27.20;1.00
14709;DHT22;7445;50.774;4.944;2023-08-21T11:00:10;27.50;1.00
14709;DHT22;7445;50.774;4.944;2023-08-21T11:02:39;27.60;1.00
14709;DHT22;7445;50.774;4.944;2023-08-21T11:05:05;27.90;1.00
14709;DHT22;7445;50.774;4.944;2023-08-21T11:07:47;28.00;1.00
14709;DHT22;7445;50.774;4.944;2023-08-21T11:10:21;28.00;1.00
14709;DHT22;7445;50.774;4.944;2023-08-21T11:12:55;28.10;1.00
14709;DHT22;7445;50.774;4.944;2023-08-21T11:15:21;28.10;1.00
14709;DHT22;7445;50.774;4.944;2023-08-21T11:17:54;27.80;1.00
14709;DHT22;7445;50.774;4.944;2023-08-21T11:20:21;27.90;1.00
14709;DHT22;7445;50.774;4.944;2023-08-21T11:22:46;27.80;1.00
14709;DHT22;7445;50.774;4.944;2023-08-21T11:25:12;27.70;1.00
14709;DHT22;7445;50.774;4.944;2023-08-21T11:27:39;27.60;1.00
14709;DHT22;7445;50.774;4.944;2023-08-21T11:30:05;28.20;1.00
14709;DHT22;7445;50.774;4.944;2023-08-21T11:32:31;28.30;1.00
14709;DHT22;7445;50.774;4.944;2023-08-21T11:34:57;27.80;1.00
14709;DHT22;7445;50.774;4.944;2023-08-21T11:37:25;27.60;1.00
14709;DHT22;7445;50.774;4.944;2023-08-21T11:39:54;27.40;1.00
14709;DHT22;7445;50.774;4.944;2023-08-21T11:42:22;27.80;1.00
14709;DHT22;7445;50.774;4.944;2023-08-21T11:44:52;28.00;1.00
14709;DHT22;7445;50.774;4.944;2023-08-21T11:47:22;28.40;1.00
14709;DHT22;7445;50.774;4.944;2023-08-21T11:49:49;28.70;1.00
14709;DHT22;7445;50.774;4.944;2023-08-21T11:52:22;28.80;1.00
14709;DHT22;7445;50.774;4.944;2023-08-21T11:54:51;28.50;1.00
14709;DHT22;7445;50.774;4.944;2023-08-21T11:57:21;28.40;1.00
14709;DHT22;7445;50.774;4.944;2023-08-21T11:59:54;27.70;1.00
14709;DHT22;7445;50.774;4.944;2023-08-21T12:05:02;27.00;1.00
14709;DHT22;7445;50.774;4.944;2023-08-21T12:07:29;27.00;1.00
14709;DHT22;7445;50.774;4.944;2023-08-21T12:09:54;27.40;1.00
14709;DHT22;7445;50.774;4.944;2023-08-21T12:12:20;27.80;1.00
14709;DHT22;7445;50.774;4.944;2023-08-21T12:14:46;28.00;1.00
14709;DHT22;7445;50.774;4.944;2023-08-21T12:17:12;28.40;1.00
14709;DHT22;7445;50.774;4.944;2023-08-21T12:19:38;29.10;99.90
14709;DHT22;7445;50.774;4.944;2023-08-21T12:22:04;29.10;99.90
14709;DHT22;7445;50.774;4.944;2023-08-21T12:24:30;29.40;99.90
14709;DHT22;7445;50.774;4.944;2023-08-21T12:26:57;28.80;99.90
14709;DHT22;7445;50.774;4.944;2023-08-21T12:29:22;28.30;99.90
14709;DHT22;7445;50.774;4.944;2023-08-21T12:31:49;27.70;99.90
14709;DHT22;7445;50.774;4.944;2023-08-21T12:34:15;27.30;99.90
14709;DHT22;7445;50.774;4.944;2023-08-21T12:36:40;26.90;99.90
14709;DHT22;7445;50.774;4.944;2023-08-21T12:39:06;26.60;99.90
14709;DHT22;7445;50.774;4.944;2023-08-21T12:41:33;27.30;1.00
14709;DHT22;7445;50.774;4.944;2023-08-21T12:44:01;27.80;99.90
14709;DHT22;7445;50.774;4.944;2023-08-21T12:46:34;28.40;99.90
14709;DHT22;7445;50.774;4.944;2023-08-21T12:49:00;28.80;1.00
14709;DHT22;7445;50.774;4.944;2023-08-21T12:51:27;28.90;99.90
14709;DHT22;7445;50.774;4.944;2023-08-21T12:53:53;28.80;99.90
14709;DHT22;7445;50.774;4.944;2023-08-21T12:56:18;28.60;99.90
14709;DHT22;7445;50.774;4.944;2023-08-21T12:58:45;28.60;99.90
14709;DHT22;7445;50.774;4.944;2023-08-21T13:01:11;28.80;99.90
14709;DHT22;7445;50.774;4.944;2023-08-21T13:03:38;28.90;99.90
14709;DHT22;7445;50.774;4.944;2023-08-21T13:06:04;28.70;99.90
14709;DHT22;7445;50.774;4.944;2023-08-21T13:08:30;28.40;99.90
14709;DHT22;7445;50.774;4.944;2023-08-21T13:10:56;28.00;99.90
14709;DHT22;7445;50.774;4.944;2023-08-21T13:13:21;27.80;99.90
14709;DHT22;7445;50.774;4.944;2023-08-21T13:15:47;28.20;99.90
14709;DHT22;7445;50.774;4.944;2023-08-21T13:18:13;28.90;99.90
14709;DHT22;7445;50.774;4.944;2023-08-21T13:20:43;29.10;99.90
14709;DHT22;7445;50.774;4.944;2023-08-21T13:23:09;29.20;99.90
14709;DHT22;7445;50.774;4.944;2023-08-21T13:25:35;29.20;99.90
14709;DHT22;7445;50.774;4.944;2023-08-21T13:28:01;28.60;99.90
14709;DHT22;7445;50.774;4.944;2023-08-21T13:30:28;28.20;99.90
14709;DHT22;7445;50.774;4.944;2023-08-21T13:32:54;27.80;99.90
14709;DHT22;7445;50.774;4.944;2023-08-21T13:35:19;27.60;99.90
14709;DHT22;7445;50.774;4.944;2023-08-21T13:37:47;28.20;99.90
14709;DHT22;7445;50.774;4.944;2023-08-21T13:40:13;28.70;99.90
14709;DHT22;7445;50.774;4.944;2023-08-21T13:42:43;28.80;99.90
14709;DHT22;7445;50.774;4.944;2023-08-21T13:45:09;28.50;99.90
14709;DHT22;7445;50.774;4.944;2023-08-21T13:47:38;28.10;99.90
14709;DHT22;7445;50.774;4.944;2023-08-21T13:50:07;27.80;99.90
14709;DHT22;7445;50.774;4.944;2023-08-21T13:52:33;27.90;99.90
14709;DHT22;7445;50.774;4.944;2023-08-21T13:55:00;28.10;99.90
14709;DHT22;7445;50.774;4.944;2023-08-21T13:57:26;28.30;99.90
14709;DHT22;7445;50.774;4.944;2023-08-21T13:59:52;28.50;99.90
14709;DHT22;7445;50.774;4.944;2023-08-21T14:02:18;28.60;99.90
14709;DHT22;7445;50.774;4.944;2023-08-21T14:04:45;28.90;99.90
14709;DHT22;7445;50.774;4.944;2023-08-21T14:07:10;28.70;99.90
14709;DHT22;7445;50.774;4.944;2023-08-21T14:09:37;28.60;99.90
14709;DHT22;7445;50.774;4.944;2023-08-21T14:12:03;28.80;99.90
14709;DHT22;7445;50.774;4.944;2023-08-21T14:14:29;29.10;99.90
14709;DHT22;7445;50.774;4.944;2023-08-21T14:16:54;28.90;99.90
14709;DHT22;7445;50.774;4.944;2023-08-21T14:19:20;28.50;99.90
14709;DHT22;7445;50.774;4.944;2023-08-21T14:21:46;28.10;99.90
14709;DHT22;7445;50.774;4.944;2023-08-21T14:24:11;28.20;99.90
14709;DHT22;7445;50.774;4.944;2023-08-21T14:26:37;28.60;99.90
14709;DHT22;7445;50.774;4.944;2023-08-21T14:29:03;29.10;99.90
14709;DHT22;7445;50.774;4.944;2023-08-21T14:31:28;29.30;99.90
14709;DHT22;7445;50.774;4.944;2023-08-21T14:33:54;29.30;99.90
14709;DHT22;7445;50.774;4.944;2023-08-21T14:36:20;29.10;99.90
14709;DHT22;7445;50.774;4.944;2023-08-21T14:38:46;28.80;99.90
14709;DHT22;7445;50.774;4.944;2023-08-21T14:41:12;28.80;99.90
14709;DHT22;7445;50.774;4.944;2023-08-21T14:43:37;29.30;99.90
14709;DHT22;7445;50.774;4.944;2023-08-21T14:46:03;30.10;99.90
14709;DHT22;7445;50.774;4.944;2023-08-21T14:48:29;30.30;99.90
14709;DHT22;7445;50.774;4.944;2023-08-21T14:50:55;30.00;99.90
14709;DHT22;7445;50.774;4.944;2023-08-21T14:53:20;29.90;99.90
14709;DHT22;7445;50.774;4.944;2023-08-21T14:55:46;29.70;99.90
14709;DHT22;7445;50.774;4.944;2023-08-21T14:58:12;30.20;99.90
14709;DHT22;7445;50.774;4.944;2023-08-21T15:00:37;30.60;99.90
14709;DHT22;7445;50.774;4.944;2023-08-21T15:03:03;30.70;99.90
14709;DHT22;7445;50.774;4.944;2023-08-21T15:05:29;30.40;99.90
14709;DHT22;7445;50.774;4.944;2023-08-21T15:07:55;30.40;99.90
14709;DHT22;7445;50.774;4.944;2023-08-21T15:10:21;30.80;99.90
14709;DHT22;7445;50.774;4.944;2023-08-21T15:12:47;31.00;99.90
14709;DHT22;7445;50.774;4.944;2023-08-21T15:15:14;30.60;99.90
14709;DHT22;7445;50.774;4.944;2023-08-21T15:17:40;30.40;99.90
14709;DHT22;7445;50.774;4.944;2023-08-21T15:20:06;30.40;99.90
14709;DHT22;7445;50.774;4.944;2023-08-21T15:22:33;30.60;99.90
14709;DHT22;7445;50.774;4.944;2023-08-21T15:24:58;30.90;99.90
14709;DHT22;7445;50.774;4.944;2023-08-21T15:27:24;31.10;99.90
14709;DHT22;7445;50.774;4.944;2023-08-21T15:29:50;31.00;99.90
14709;DHT22;7445;50.774;4.944;2023-08-21T15:32:16;30.70;99.90
14709;DHT22;7445;50.774;4.944;2023-08-21T15:34:41;30.60;99.90
14709;DHT22;7445;50.774;4.944;2023-08-21T15:37:07;30.60;99.90
14709;DHT22;7445;50.774;4.944;2023-08-21T15:39:34;30.30;99.90
14709;DHT22;7445;50.774;4.944;2023-08-21T15:41:59;30.00;99.90
14709;DHT22;7445;50.774;4.944;2023-08-21T15:44:25;30.60;99.90
14709;DHT22;7445;50.774;4.944;2023-08-21T15:46:51;30.70;99.90
14709;DHT22;7445;50.774;4.944;2023-08-21T15:49:16;30.80;99.90
14709;DHT22;7445;50.774;4.944;2023-08-21T15:51:45;30.90;99.90
14709;DHT22;7445;50.774;4.944;2023-08-21T15:54:12;31.10;99.90
14709;DHT22;7445;50.774;4.944;2023-08-21T15:56:38;30.50;99.90
14709;DHT22;7445;50.774;4.944;2023-08-21T15:59:03;30.20;99.90
14709;DHT22;7445;50.774;4.944;2023-08-21T16:01:29;30.20;99.90